Terminal Aerodrome Forecast
Issued by NWS

Home | Current Version | Previous Version | Text Only | Print | Product List | Glossary On
Versions: 1 2 3 4 5 6 7 8 9 10 11 12 13 14 15 16 17 18 19
458
FTUS43 KABR 271127
TAFATY
TAF
KATY 271127Z 2712/2812 33005KT P6SM SKC
     FM271800 04006KT P6SM FEW045
     FM280000 07006KT P6SM FEW250=

USA.gov is the U.S. government's official web portal to all federal, state and local government web resources and services.